Time;durP1;ratioP1;P1;durP2;ratioP2;P2;SDS_P1;SDS_P2;PMS_P1;PMS_P2;Temp;Humidity;BMP_temperature;BMP_pressure;BME280_temperature;BME280_humidity;BME280_pressure;Samples;Min_cycle;Max_cycle;Signal;HPM_P1;HPM_P2
2022/05/25 00:01:11;;;;;;;10.27;6.07;;;11.50;99.90;;;;;;7399978;19;20090;-72
2022/05/25 00:03:42;;;;;;;10.35;6.95;;;11.00;99.90;;;;;;7395191;19;20015;-72
2022/05/25 00:06:13;;;;;;;9.93;6.03;;;11.00;99.90;;;;;;7400418;19;20018;-72
2022/05/25 00:08:43;;;;;;;11.05;5.95;;;11.00;99.90;;;;;;7396952;19;20011;-72
2022/05/25 00:11:13;;;;;;;8.52;6.22;;;11.10;99.90;;;;;;7396341;19;20022;-73
2022/05/25 00:13:42;;;;;;;8.00;6.07;;;;;;;;;;7394481;19;20019;-72
2022/05/25 00:16:12;;;;;;;8.40;6.30;;;;;;;;;;7398931;19;20015;-72
2022/05/25 00:19:58;;;;;;;7.88;6.10;;;11.10;99.90;;;;;;7396465;19;20030;-72
2022/05/25 00:21:30;;;;;;;9.73;6.47;;;;;;;;;;7396043;19;20082;-73
2022/05/25 00:24:00;;;;;;;11.00;6.55;;;10.80;99.90;;;;;;7398588;19;20018;-73
2022/05/25 00:26:29;;;;;;;8.55;6.00;;;10.80;99.90;;;;;;7398156;19;20015;-73
2022/05/25 00:28:58;;;;;;;8.88;5.80;;;;;;;;;;7398420;19;20534;-72
2022/05/25 00:31:26;;;;;;;11.32;6.20;;;10.70;99.90;;;;;;7395950;19;20014;-73
2022/05/25 00:33:58;;;;;;;10.60;6.43;;;10.90;99.90;;;;;;7396563;19;20615;-73
2022/05/25 00:36:28;;;;;;;10.52;6.22;;;10.80;99.90;;;;;;7397253;19;20018;-73
2022/05/25 00:38:57;;;;;;;8.30;5.93;;;10.70;99.90;;;;;;7399275;19;20041;-73
2022/05/25 00:41:28;;;;;;;10.07;6.68;;;11.00;99.90;;;;;;7402417;19;20011;-73
2022/05/25 00:43:57;;;;;;;8.68;5.93;;;10.70;99.90;;;;;;7418571;19;20027;-73
2022/05/25 00:46:27;;;;;;;8.45;6.40;;;10.90;99.90;;;;;;7402494;19;20032;-72
2022/05/25 00:49:04;;;;;;;9.73;6.30;;;10.80;99.90;;;;;;7392603;19;20023;-75
2022/05/25 00:51:39;;;;;;;7.80;5.85;;;10.50;99.90;;;;;;7395557;19;20037;-74
2022/05/25 00:54:13;;;;;;;8.00;6.32;;;10.60;99.90;;;;;;7399280;19;20026;-74
2022/05/25 00:56:45;;;;;;;9.10;6.00;;;10.50;99.90;;;;;;7396108;19;20018;-73
2022/05/25 00:59:17;;;;;;;8.50;6.30;;;10.50;99.90;;;;;;7398286;19;20035;-73
2022/05/25 01:01:46;;;;;;;10.63;7.00;;;10.60;99.90;;;;;;7395059;19;20018;-73
2022/05/25 01:04:18;;;;;;;10.40;7.10;;;10.50;99.90;;;;;;7394740;19;20014;-73
2022/05/25 01:07:06;;;;;;;8.52;6.28;;;10.90;99.90;;;;;;7394203;19;20019;-74
2022/05/25 01:09:43;;;;;;;9.23;6.72;;;10.40;99.90;;;;;;7394732;19;20465;-73
2022/05/25 01:12:28;;;;;;;10.48;7.07;;;10.30;99.90;;;;;;7392502;19;20073;-73
2022/05/25 01:15:08;;;;;;;10.45;6.85;;;10.30;99.90;;;;;;7398953;19;20015;-72
2022/05/25 01:17:52;;;;;;;13.10;6.82;;;10.60;99.90;;;;;;7394358;19;20010;-73
2022/05/25 01:20:33;;;;;;;7.90;6.43;;;10.70;99.90;;;;;;7393675;19;20025;-73
2022/05/25 01:23:39;;;;;;;7.95;6.55;;;10.60;99.90;;;;;;7395114;19;20015;-73
2022/05/25 01:26:44;;;;;;;10.05;6.70;;;10.60;99.90;;;;;;7396675;19;20062;-73
2022/05/25 01:29:25;;;;;;;9.38;6.43;;;10.50;99.90;;;;;;7393300;19;20329;-72
2022/05/25 01:32:01;;;;;;;9.98;6.45;;;10.80;99.90;;;;;;7393601;19;20030;-73
2022/05/25 01:34:36;;;;;;;7.70;6.80;;;10.50;99.90;;;;;;7393214;19;20443;-72
2022/05/25 01:37:09;;;;;;;8.73;6.57;;;10.70;99.90;;;;;;7394086;19;20018;-72
2022/05/25 01:39:44;;;;;;;9.68;6.82;;;10.60;99.90;;;;;;7394966;19;20379;-73
2022/05/25 01:42:19;;;;;;;9.35;6.30;;;10.60;99.90;;;;;;7395963;19;20039;-73
2022/05/25 01:44:53;;;;;;;10.00;6.95;;;10.50;99.90;;;;;;7393321;19;20010;-73
2022/05/25 01:47:27;;;;;;;9.27;6.57;;;10.60;99.90;;;;;;7392944;19;20019;-73
2022/05/25 01:50:01;;;;;;;8.02;6.15;;;10.10;99.90;;;;;;7392977;19;20070;-72
2022/05/25 01:52:34;;;;;;;8.95;6.90;;;10.50;99.90;;;;;;7393437;19;20022;-73
2022/05/25 01:55:07;;;;;;;12.05;6.70;;;10.40;99.90;;;;;;7393865;19;20010;-73
2022/05/25 01:57:41;;;;;;;9.93;6.97;;;10.60;99.90;;;;;;7391641;19;20506;-73
2022/05/25 02:00:11;;;;;;;9.63;6.93;;;10.30;99.90;;;;;;7394181;19;20018;-73
2022/05/25 02:05:25;;;;;;;10.60;7.00;;;10.30;99.90;;;;;;7393091;19;20011;-72
2022/05/25 02:08:09;;;;;;;9.90;7.10;;;10.80;99.90;;;;;;7390908;19;20387;-73
2022/05/25 02:10:46;;;;;;;;;;;10.60;99.90;;;;;;7393507;19;20014;-73
2022/05/25 02:13:32;;;;;;;10.23;7.30;;;10.40;99.90;;;;;;7390557;19;19915;-72
2022/05/25 02:16:16;;;;;;;10.95;7.35;;;10.20;99.90;;;;;;7392435;19;20013;-73
2022/05/25 02:18:59;;;;;;;11.85;7.50;;;10.60;99.90;;;;;;7391379;19;20049;-72
2022/05/25 02:21:37;;;;;;;9.85;7.03;;;10.00;99.90;;;;;;7394790;19;20015;-73
2022/05/25 02:24:12;;;;;;;10.32;7.80;;;10.20;99.90;;;;;;7394589;19;20570;-73
2022/05/25 02:26:46;;;;;;;14.50;7.75;;;10.20;99.90;;;;;;7394531;19;20022;-73
2022/05/25 02:29:21;;;;;;;10.18;7.70;;;9.90;99.90;;;;;;7391322;19;20022;-73
2022/05/25 02:31:55;;;;;;;12.00;8.02;;;10.10;99.90;;;;;;7394142;19;20585;-72
2022/05/25 02:34:28;;;;;;;12.55;8.07;;;9.70;99.90;;;;;;7392233;19;20479;-73
2022/05/25 02:36:59;;;;;;;10.05;7.88;;;10.00;99.90;;;;;;7394777;19;20018;-72
2022/05/25 02:39:28;;;;;;;11.85;8.70;;;10.00;99.90;;;;;;7396403;19;20026;-72
2022/05/25 02:41:59;;;;;;;11.65;8.05;;;10.00;99.90;;;;;;7392929;19;20356;-72
2022/05/25 02:44:28;;;;;;;11.50;8.02;;;9.90;99.90;;;;;;7392209;19;20017;-72
2022/05/25 02:46:57;;;;;;;10.80;7.82;;;;;;;;;;7389825;19;20509;-72
2022/05/25 02:49:29;;;;;;;13.18;8.35;;;9.90;99.90;;;;;;7392686;19;20010;-72
2022/05/25 02:51:57;;;;;;;10.48;8.07;;;9.80;99.90;;;;;;7391568;19;20481;-72
2022/05/25 02:54:26;;;;;;;11.30;8.32;;;10.00;99.90;;;;;;7391668;19;20036;-72
2022/05/25 02:56:55;;;;;;;11.38;8.27;;;9.80;99.90;;;;;;7390620;19;20022;-72
2022/05/25 02:59:24;;;;;;;12.93;9.05;;;10.20;99.90;;;;;;7393819;19;20025;-73
2022/05/25 03:01:53;;;;;;;12.23;8.90;;;10.10;99.90;;;;;;7390889;19;20015;-72
2022/05/25 03:04:22;;;;;;;13.07;9.10;;;;;;;;;;7389726;19;20505;-73
2022/05/25 03:06:54;;;;;;;12.98;9.77;;;9.70;99.90;;;;;;7394790;19;20082;-72
2022/05/25 03:09:23;;;;;;;14.45;9.70;;;9.60;99.90;;;;;;7393678;19;20018;-72
2022/05/25 03:11:53;;;;;;;12.32;8.82;;;9.50;99.90;;;;;;7398035;19;20100;-72
2022/05/25 03:14:21;;;;;;;13.55;9.90;;;9.50;99.90;;;;;;7401959;19;20011;-72
2022/05/25 03:16:50;;;;;;;13.88;9.25;;;9.80;99.90;;;;;;7397236;19;20018;-72
2022/05/25 03:19:20;;;;;;;14.40;9.48;;;;;;;;;;7398817;19;20598;-72
2022/05/25 03:21:49;;;;;;;14.18;8.95;;;10.00;99.90;;;;;;7395115;19;20015;-72
2022/05/25 03:24:21;;;;;;;13.02;9.63;;;9.60;99.90;;;;;;7401949;19;20018;-73
2022/05/25 03:26:50;;;;;;;14.02;9.57;;;9.50;99.90;;;;;;7397298;19;20399;-72
2022/05/25 03:29:20;;;;;;;12.68;8.77;;;9.40;99.90;;;;;;7400232;19;20025;-72
2022/05/25 03:31:50;;;;;;;13.60;8.90;;;9.40;99.90;;;;;;7397758;19;20030;-72
2022/05/25 03:34:20;;;;;;;17.08;8.95;;;9.80;99.90;;;;;;7399433;19;20481;-72
2022/05/25 03:36:48;;;;;;;12.80;9.27;;;9.50;99.90;;;;;;7396868;19;20010;-72
2022/05/25 03:39:17;;;;;;;11.80;9.18;;;;;;;;;;7401547;19;20523;-73
2022/05/25 03:41:49;;;;;;;12.07;8.82;;;9.30;99.90;;;;;;7398464;19;20022;-73
2022/05/25 03:44:20;;;;;;;12.73;9.43;;;9.30;99.90;;;;;;7399525;19;20078;-73
2022/05/25 03:46:48;;;;;;;12.73;8.93;;;9.30;99.90;;;;;;7397347;19;20014;-74
2022/05/25 03:49:18;;;;;;;12.98;8.93;;;9.40;99.90;;;;;;7408241;19;20496;-72
2022/05/25 03:51:47;;;;;;;14.93;9.13;;;9.30;99.90;;;;;;7399242;19;20011;-73
2022/05/25 03:54:16;;;;;;;12.93;8.93;;;9.30;99.90;;;;;;7405844;19;20024;-72
2022/05/25 03:56:44;;;;;;;13.75;9.57;;;9.10;99.90;;;;;;7399702;19;20011;-73
2022/05/25 03:59:16;;;;;;;13.95;9.50;;;9.10;99.90;;;;;;7397236;19;20358;-73
2022/05/25 04:01:45;;;;;;;13.63;9.07;;;8.90;99.90;;;;;;7399362;19;20022;-73
2022/05/25 04:04:14;;;;;;;13.45;9.07;;;;;;;;;;7399212;19;20006;-72
2022/05/25 04:06:43;;;;;;;14.88;9.75;;;9.60;99.90;;;;;;7399538;19;20015;-73
2022/05/25 04:09:13;;;;;;;13.85;8.98;;;;;;;;;;7393456;19;20527;-72
2022/05/25 04:11:45;;;;;;;15.55;10.30;;;9.30;99.90;;;;;;7399061;19;20037;-73
2022/05/25 04:14:16;;;;;;;13.13;9.30;;;9.10;99.90;;;;;;7399893;19;20018;-73
2022/05/25 04:16:46;;;;;;;14.98;9.77;;;9.20;99.90;;;;;;7396414;19;20041;-73
2022/05/25 04:19:15;;;;;;;14.45;10.20;;;9.20;99.90;;;;;;7395460;19;20015;-73
2022/05/25 04:21:45;;;;;;;13.75;10.10;;;9.20;99.90;;;;;;7400351;19;20422;-73
2022/05/25 04:24:16;;;;;;;15.65;9.35;;;9.10;99.90;;;;;;7395836;19;20018;-73
2022/05/25 04:26:45;;;;;;;14.48;9.50;;;9.10;99.90;;;;;;7395217;19;20014;-73
2022/05/25 04:29:16;;;;;;;14.95;10.27;;;9.10;99.90;;;;;;7393751;19;20025;-73
2022/05/25 04:31:46;;;;;;;13.75;9.57;;;9.00;99.90;;;;;;7397652;19;20031;-73
2022/05/25 04:34:15;;;;;;;14.63;10.20;;;8.90;99.90;;;;;;7399155;19;20010;-73
2022/05/25 04:36:44;;;;;;;17.00;9.90;;;9.10;99.90;;;;;;7394466;19;20011;-72
2022/05/25 04:39:13;;;;;;;15.32;11.23;;;9.20;99.90;;;;;;7395090;19;20022;-73
2022/05/25 04:41:42;;;;;;;15.85;9.93;;;9.30;99.90;;;;;;7397192;19;20041;-73
2022/05/25 04:44:11;;;;;;;13.70;9.90;;;9.30;99.90;;;;;;7396704;19;20035;-73
2022/05/25 04:46:43;;;;;;;16.38;10.15;;;9.50;99.90;;;;;;7394981;19;20038;-72
2022/05/25 04:49:11;;;;;;;17.45;10.27;;;9.40;99.90;;;;;;7396363;19;20379;-72
2022/05/25 04:51:40;;;;;;;16.42;10.60;;;9.10;99.90;;;;;;7392998;19;20029;-72
2022/05/25 04:54:09;;;;;;;15.82;10.10;;;;;;;;;;7396984;19;20006;-72
2022/05/25 04:59:19;;;;;;;14.43;9.70;;;9.40;99.90;;;;;;7395247;19;20018;-73
2022/05/25 05:01:51;;;;;;;14.90;9.48;;;9.40;99.90;;;;;;7394989;19;20037;-72
2022/05/25 05:04:20;;;;;;;16.38;10.40;;;;;;;;;;7394862;19;20014;-72
2022/05/25 05:06:49;;;;;;;14.07;9.93;;;9.50;99.90;;;;;;7394894;19;20046;-73
2022/05/25 05:09:18;;;;;;;14.85;10.13;;;9.60;99.90;;;;;;7394371;19;20014;-72
2022/05/25 05:11:47;;;;;;;15.18;10.20;;;9.70;99.90;;;;;;7396565;19;20021;-73
2022/05/25 05:14:16;;;;;;;15.15;10.20;;;9.70;99.90;;;;;;7398320;19;20034;-72
2022/05/25 05:16:45;;;;;;;16.38;9.57;;;;;;;;;;7396339;19;20489;-72
2022/05/25 05:19:17;;;;;;;15.30;10.57;;;10.00;99.90;;;;;;7393250;19;20077;-73
2022/05/25 05:21:47;;;;;;;16.52;10.13;;;;;;;;;;7397640;19;20359;-72
2022/05/25 05:24:16;;;;;;;17.58;10.73;;;9.90;99.90;;;;;;7393792;19;20399;-72
2022/05/25 05:26:45;;;;;;;15.35;10.25;;;9.90;99.90;;;;;;7395358;19;20022;-72
2022/05/25 05:29:14;;;;;;;15.07;10.35;;;9.90;99.90;;;;;;7392412;19;20043;-72
2022/05/25 05:31:43;;;;;;;15.63;10.23;;;10.00;99.90;;;;;;7389946;19;20367;-73
2022/05/25 05:34:12;;;;;;;17.13;10.52;;;9.90;99.90;;;;;;7395602;19;20352;-73
2022/05/25 05:36:49;;;;;;;17.30;10.63;;;10.10;99.90;;;;;;7397507;19;20358;-73
2022/05/25 05:39:19;;;;;;;16.02;10.05;;;10.00;99.90;;;;;;7393835;19;20037;-73
2022/05/25 05:41:52;;;;;;;14.68;10.00;;;10.20;99.90;;;;;;7391070;19;20018;-73
2022/05/25 05:44:25;;;;;;;14.93;9.10;;;10.00;99.90;;;;;;7396827;19;20019;-73
2022/05/25 05:46:57;;;;;;;15.30;10.43;;;10.30;99.90;;;;;;7394243;19;20015;-72
2022/05/25 05:49:26;;;;;;;17.65;9.90;;;10.20;99.90;;;;;;7392563;19;20018;-72
2022/05/25 05:51:58;;;;;;;14.73;10.20;;;10.20;99.90;;;;;;7397926;19;20017;-72
2022/05/25 05:54:27;;;;;;;14.55;10.57;;;10.30;99.90;;;;;;7393962;19;20018;-72
2022/05/25 05:56:55;;;;;;;16.30;9.48;;;11.50;99.90;;;;;;7393412;19;20014;-73
2022/05/25 05:59:24;;;;;;;13.45;9.38;;;10.70;99.90;;;;;;7393282;19;20085;-73
2022/05/25 06:01:53;;;;;;;13.85;9.25;;;10.60;99.90;;;;;;7392960;19;20025;-73
2022/05/25 06:04:22;;;;;;;13.32;9.95;;;10.50;99.90;;;;;;7391222;19;20022;-75
2022/05/25 06:06:51;;;;;;;14.35;8.90;;;10.60;99.90;;;;;;7395004;19;20022;-73
2022/05/25 06:09:23;;;;;;;14.98;9.65;;;10.70;99.90;;;;;;7392114;19;20385;-73
2022/05/25 06:11:52;;;;;;;14.63;9.57;;;10.70;99.90;;;;;;7395631;19;20010;-73
2022/05/25 06:14:21;;;;;;;14.73;9.55;;;;;;;;;;7392419;19;20048;-72
2022/05/25 06:19:33;;;;;;;14.63;9.90;;;10.80;99.90;;;;;;7393867;19;20017;-72
2022/05/25 06:22:07;;;;;;;17.08;10.35;;;11.00;99.90;;;;;;7394626;19;20022;-72
2022/05/25 06:24:41;;;;;;;15.48;9.10;;;11.00;99.90;;;;;;7393212;19;20015;-72
2022/05/25 06:27:11;;;;;;;13.73;9.65;;;11.00;99.90;;;;;;7390247;19;20014;-73
2022/05/25 06:29:42;;;;;;;13.95;9.65;;;11.10;99.90;;;;;;7388411;19;20426;-73
2022/05/25 06:32:14;;;;;;;13.57;9.10;;;11.20;99.90;;;;;;7392626;19;20026;-73
2022/05/25 06:34:47;;;;;;;16.77;9.07;;;11.20;99.90;;;;;;7393467;19;20019;-74
2022/05/25 06:37:18;;;;;;;14.30;9.05;;;11.30;99.90;;;;;;7394709;19;20015;-73
2022/05/25 06:39:50;;;;;;;14.48;8.40;;;11.30;99.90;;;;;;7396134;19;20037;-73
2022/05/25 06:42:19;;;;;;;13.13;9.27;;;;;;;;;;7393632;19;20027;-73
2022/05/25 06:44:48;;;;;;;13.70;9.20;;;11.40;99.90;;;;;;7392378;19;20792;-74
2022/05/25 06:47:18;;;;;;;13.75;9.15;;;11.60;99.90;;;;;;7402216;19;20014;-73
2022/05/25 06:49:47;;;;;;;11.43;8.27;;;11.60;99.90;;;;;;7391041;19;20018;-73
2022/05/25 06:52:16;;;;;;;14.52;9.57;;;;;;;;;;7393156;19;20482;-73
2022/05/25 06:54:45;;;;;;;14.75;9.02;;;11.60;99.90;;;;;;7401938;19;20006;-73
2022/05/25 06:57:17;;;;;;;12.88;8.77;;;11.60;99.90;;;;;;7401669;19;20542;-73
2022/05/25 06:59:46;;;;;;;14.77;8.35;;;;;;;;;;7409433;19;20018;-73
2022/05/25 07:02:15;;;;;;;15.35;8.77;;;;;;;;;;7411732;19;20014;-73
2022/05/25 07:04:44;;;;;;;15.93;8.63;;;11.90;99.90;;;;;;7402660;19;20023;-73
2022/05/25 07:07:14;;;;;;;13.57;7.70;;;11.90;99.90;;;;;;7411069;19;20391;-73
2022/05/25 07:09:43;;;;;;;14.55;8.52;;;12.00;99.90;;;;;;7398918;19;20470;-73
2022/05/25 07:12:12;;;;;;;14.02;7.93;;;12.00;99.90;;;;;;7399388;19;20077;-73
2022/05/25 07:14:44;;;;;;;14.15;8.90;;;12.00;99.90;;;;;;7397687;19;20027;-73
2022/05/25 07:17:13;;;;;;;11.45;7.93;;;;;;;;;;7403013;19;20078;-74
2022/05/25 07:19:42;;;;;;;11.80;7.72;;;12.00;99.90;;;;;;7399279;19;20367;-74
2022/05/25 07:22:14;;;;;;;14.90;7.70;;;12.20;99.90;;;;;;7402047;19;20038;-74
2022/05/25 07:24:43;;;;;;;12.60;8.20;;;12.30;99.90;;;;;;7396817;19;20019;-73
2022/05/25 07:27:12;;;;;;;13.25;8.52;;;12.40;99.90;;;;;;7401998;19;20021;-73
2022/05/25 07:29:43;;;;;;;14.30;7.90;;;12.30;99.90;;;;;;7398056;19;20011;-73
2022/05/25 07:32:14;;;;;;;15.88;8.73;;;12.30;99.90;;;;;;7397148;19;20017;-74
2022/05/25 07:34:47;;;;;;;15.13;9.55;;;12.40;99.90;;;;;;7397748;19;20197;-74
2022/05/25 07:37:18;;;;;;;11.10;8.13;;;12.40;99.90;;;;;;7401122;19;20379;-73
2022/05/25 07:39:51;;;;;;;11.93;7.50;;;12.80;99.90;;;;;;7398334;19;20038;-74
2022/05/25 07:42:22;;;;;;;13.23;7.78;;;12.90;99.90;;;;;;7401614;19;20015;-74
2022/05/25 07:44:57;;;;;;;13.63;7.55;;;12.70;99.90;;;;;;7397538;19;20344;-73
2022/05/25 07:47:27;;;;;;;12.35;7.63;;;12.80;99.90;;;;;;7401436;19;20422;-74
2022/05/25 07:49:56;;;;;;;11.05;7.82;;;12.60;99.90;;;;;;7396039;19;20421;-73
2022/05/25 07:52:28;;;;;;;10.30;7.60;;;12.70;99.90;;;;;;7400201;19;20023;-74
2022/05/25 07:54:58;;;;;;;11.80;7.53;;;12.80;99.90;;;;;;7399351;19;20015;-73
2022/05/25 07:57:27;;;;;;;14.50;8.05;;;;;;;;;;7399980;19;20490;-73
2022/05/25 07:59:59;;;;;;;9.32;6.78;;;12.70;99.90;;;;;;7396986;19;20011;-74
2022/05/25 08:08:13;;;;;;;11.32;6.65;;;12.90;99.90;;;;;;7392646;19;20436;-74
2022/05/25 08:10:43;;;;;;;9.32;5.90;;;13.10;99.90;;;;;;7395307;19;20041;-74
2022/05/25 08:13:17;;;;;;;9.48;6.43;;;13.10;99.90;;;;;;7396897;19;20015;-73
2022/05/25 08:15:49;;;;;;;9.10;5.85;;;13.10;99.90;;;;;;7396261;19;20014;-73
2022/05/25 08:18:21;;;;;;;11.27;5.95;;;13.30;99.90;;;;;;7399002;19;20019;-74
2022/05/25 08:20:50;;;;;;;9.80;6.03;;;13.30;99.90;;;;;;7396858;19;20014;-73
2022/05/25 08:23:20;;;;;;;11.48;6.70;;;13.40;99.90;;;;;;7396475;19;20018;-73
2022/05/25 08:25:49;;;;;;;10.13;5.63;;;13.50;99.90;;;;;;7397493;19;20505;-73
2022/05/25 08:28:18;;;;;;;9.82;5.95;;;13.40;99.90;;;;;;7393878;19;20032;-74
2022/05/25 08:30:49;;;;;;;8.60;5.50;;;13.60;99.90;;;;;;7399565;19;20007;-74
2022/05/25 08:33:20;;;;;;;10.27;6.13;;;13.60;99.90;;;;;;7395645;19;20474;-74
2022/05/25 08:35:49;;;;;;;9.15;5.63;;;13.90;99.90;;;;;;7396063;19;20015;-74
2022/05/25 08:38:21;;;;;;;7.05;5.13;;;14.00;99.90;;;;;;7397112;19;20017;-74
2022/05/25 08:40:51;;;;;;;8.65;5.57;;;13.80;99.90;;;;;;7396357;19;20471;-74
2022/05/25 08:43:25;;;;;;;8.85;5.82;;;12.90;99.90;;;;;;7398554;19;20600;-74
2022/05/25 08:46:01;;;;;;;6.80;4.80;;;14.00;99.90;;;;;;7395660;19;20041;-73
2022/05/25 08:48:30;;;;;;;;;;;14.00;99.90;;;;;;7394995;19;20359;-74
2022/05/25 08:51:04;;;;;;;8.23;4.40;;;14.00;99.90;;;;;;7395170;19;19919;-73
2022/05/25 08:53:33;;;;;;;5.35;3.90;;;14.00;99.90;;;;;;7398166;19;20019;-74
2022/05/25 08:56:10;;;;;;;7.97;4.03;;;14.10;99.90;;;;;;7396714;19;20022;-74
2022/05/25 08:58:46;;;;;;;5.88;4.38;;;14.30;99.90;;;;;;7395648;19;20045;-73
2022/05/25 09:01:23;;;;;;;6.68;4.38;;;14.30;99.90;;;;;;7395597;19;20010;-74
2022/05/25 09:03:57;;;;;;;6.97;4.32;;;14.40;99.90;;;;;;7394956;19;20019;-73
2022/05/25 09:06:35;;;;;;;6.33;4.17;;;14.70;99.90;;;;;;7395530;19;20023;-74
2022/05/25 09:09:09;;;;;;;5.55;4.10;;;14.40;99.90;;;;;;7393890;19;20275;-73
2022/05/25 09:11:44;;;;;;;6.65;4.00;;;14.50;99.90;;;;;;7397676;19;20086;-74
2022/05/25 09:14:20;;;;;;;8.07;4.38;;;14.60;99.90;;;;;;7398818;19;20019;-74
2022/05/25 09:16:54;;;;;;;6.75;4.60;;;14.50;99.90;;;;;;7394496;19;20021;-74
2022/05/25 09:19:29;;;;;;;8.15;4.80;;;14.80;99.90;;;;;;7397043;19;20015;-74
2022/05/25 09:22:02;;;;;;;6.80;3.95;;;14.90;99.90;;;;;;7397574;19;20023;-74
2022/05/25 09:24:34;;;;;;;7.07;4.80;;;14.80;99.90;;;;;;7393724;19;20018;-75
2022/05/25 09:27:05;;;;;;;6.70;4.47;;;14.60;99.90;;;;;;7397490;19;20014;-74
2022/05/25 09:29:34;;;;;;;6.95;4.20;;;14.70;99.90;;;;;;7393259;19;20610;-74
2022/05/25 09:32:20;;;;;;;5.15;3.40;;;14.90;99.90;;;;;;7396939;19;20019;-74
2022/05/25 09:34:53;;;;;;;;;;;14.90;99.90;;;;;;7396162;19;20014;-74
2022/05/25 09:37:32;;;;;;;4.95;2.70;;;15.10;99.90;;;;;;7397608;19;19911;-75
2022/05/25 09:40:04;;;;;;;3.30;2.72;;;14.90;99.90;;;;;;7393208;19;20362;-74
2022/05/25 09:42:37;;;;;;;4.72;2.83;;;14.90;99.90;;;;;;7394052;19;20018;-74
2022/05/25 09:45:15;;;;;;;4.63;2.75;;;15.00;99.90;;;;;;7393558;19;20041;-74
2022/05/25 09:47:49;;;;;;;3.65;2.80;;;15.30;99.90;;;;;;7396732;19;20022;-74
2022/05/25 09:50:30;;;;;;;2.97;2.30;;;15.10;99.90;;;;;;7393388;19;20026;-74
2022/05/25 09:53:04;;;;;;;4.85;3.00;;;15.40;99.90;;;;;;7394452;19;20017;-74
2022/05/25 09:55:38;;;;;;;5.78;2.97;;;15.10;99.90;;;;;;7393504;19;20010;-74
2022/05/25 09:58:11;;;;;;;4.55;3.00;;;15.10;99.90;;;;;;7396346;19;20015;-75
2022/05/25 10:00:44;;;;;;;4.85;3.35;;;15.10;99.90;;;;;;7393278;19;20020;-74
2022/05/25 10:03:29;;;;;;;6.45;2.83;;;15.40;99.90;;;;;;7389038;19;20025;-74
2022/05/25 10:06:01;;;;;;;6.25;3.10;;;15.70;99.90;;;;;;7397274;19;20014;-74
2022/05/25 10:08:36;;;;;;;4.65;3.00;;;15.50;99.90;;;;;;7407105;19;20018;-74
2022/05/25 10:11:27;;;;;;;5.00;3.47;;;15.60;99.90;;;;;;7407336;19;20014;-74
2022/05/25 10:13:58;;;;;;;5.22;2.95;;;15.60;99.90;;;;;;7407637;19;20029;-75
2022/05/25 10:16:29;;;;;;;5.47;3.28;;;15.50;99.90;;;;;;7396632;19;20018;-74
2022/05/25 10:19:03;;;;;;;4.60;2.92;;;15.60;99.90;;;;;;7396567;19;20462;-74
2022/05/25 10:21:38;;;;;;;4.32;3.05;;;15.60;99.90;;;;;;7405308;19;20017;-74
2022/05/25 10:24:17;;;;;;;5.63;3.25;;;15.90;99.90;;;;;;7398216;19;20460;-73
2022/05/25 10:26:50;;;;;;;4.93;3.15;;;15.90;99.90;;;;;;7400910;19;20014;-72
2022/05/25 10:37:55;;;;;;;6.20;3.10;;;15.70;99.90;;;;;;7402855;19;20069;-73
2022/05/25 10:40:26;;;;;;;5.55;3.10;;;16.10;99.90;;;;;;7401002;19;20006;-74
2022/05/25 10:43:01;;;;;;;4.38;2.90;;;15.90;99.90;;;;;;7398749;19;20011;-73
2022/05/25 10:45:35;;;;;;;4.38;2.95;;;16.20;99.90;;;;;;7398864;19;20010;-73
2022/05/25 10:48:12;;;;;;;6.32;3.10;;;16.10;99.90;;;;;;7400621;19;20500;-73
2022/05/25 10:50:51;;;;;;;3.72;2.70;;;14.90;99.90;;;;;;7398372;19;20025;-75
2022/05/25 10:53:29;;;;;;;9.23;3.40;;;16.10;99.90;;;;;;7398993;19;20018;-74
2022/05/25 10:56:07;;;;;;;5.18;3.20;;;16.00;99.90;;;;;;7399002;19;20019;-74
2022/05/25 10:58:53;;;;;;;3.83;3.47;;;15.90;99.90;;;;;;7397316;19;20007;-74
2022/05/25 11:01:37;;;;;;;4.18;3.53;;;15.90;99.90;;;;;;7396574;19;20018;-74
2022/05/25 11:04:25;;;;;;;6.07;3.50;;;14.30;99.90;;;;;;7396186;19;20018;-73
2022/05/25 11:07:11;;;;;;;5.03;3.33;;;15.40;99.90;;;;;;7402130;19;20010;-72
2022/05/25 11:10:06;;;;;;;7.70;3.45;;;15.40;99.90;;;;;;7397241;19;20018;-72
2022/05/25 11:12:44;;;;;;;5.13;3.65;;;15.20;99.90;;;;;;7252967;19;20018;-73
2022/05/25 11:15:24;;;;;;;4.65;3.30;;;15.30;99.90;;;;;;7397958;19;20022;-72
2022/05/25 11:18:09;;;;;;;6.43;3.70;;;15.20;99.90;;;;;;7397941;19;20022;-73
2022/05/25 11:20:43;;;;;;;6.68;3.63;;;15.40;99.90;;;;;;7399596;19;20025;-73
2022/05/25 11:23:31;;;;;;;6.60;3.63;;;15.60;99.90;;;;;;7398843;19;20086;-73
2022/05/25 11:26:18;;;;;;;6.35;4.32;;;16.00;99.90;;;;;;7396591;19;20018;-73
2022/05/25 11:28:57;;;;;;;4.47;3.05;;;16.10;99.90;;;;;;7397251;19;20039;-73
2022/05/25 11:31:36;;;;;;;4.18;3.03;;;16.30;99.80;;;;;;7393040;19;20022;-73
2022/05/25 11:34:18;;;;;;;6.05;3.25;;;16.30;99.90;;;;;;7397586;19;20086;-73
2022/05/25 11:36:57;;;;;;;5.95;3.25;;;16.40;99.90;;;;;;7400394;19;20039;-74
2022/05/25 11:39:40;;;;;;;5.72;3.05;;;16.40;99.80;;;;;;7397824;19;20018;-73
2022/05/25 11:42:20;;;;;;;3.90;3.05;;;16.40;99.90;;;;;;7397763;19;20082;-74
2022/05/25 11:45:06;;;;;;;5.13;3.30;;;16.40;99.90;;;;;;7397856;19;20041;-74
2022/05/25 11:48:14;;;;;;;4.65;3.03;;;16.20;98.30;;;;;;7401015;19;20407;-74
2022/05/25 11:50:49;;;;;;;5.85;2.97;;;16.40;98.90;;;;;;7394658;19;20029;-73
2022/05/25 11:53:45;;;;;;;5.82;3.17;;;16.40;98.10;;;;;;7398055;19;20018;-74
2022/05/25 11:56:33;;;;;;;5.22;3.40;;;16.50;97.70;;;;;;7399631;19;20148;-73
2022/05/25 11:59:16;;;;;;;4.70;3.30;;;16.70;98.90;;;;;;7392652;19;20074;-73
2022/05/25 12:01:50;;;;;;;12.60;3.97;;;16.50;98.40;;;;;;7395738;19;20021;-73
2022/05/25 12:04:40;;;;;;;5.28;3.20;;;16.60;98.30;;;;;;7396623;19;20031;-72
2022/05/25 12:07:44;;;;;;;4.63;2.45;;;16.80;97.40;;;;;;7396347;19;20368;-72
2022/05/25 12:10:32;;;;;;;3.53;2.10;;;16.90;96.90;;;;;;7397242;19;20018;-72
2022/05/25 12:13:17;;;;;;;3.83;2.30;;;16.90;95.20;;;;;;7393929;19;20025;-72
2022/05/25 12:15:58;;;;;;;4.03;2.50;;;16.90;94.00;;;;;;7396233;19;20515;-72
2022/05/25 12:18:33;;;;;;;4.32;2.20;;;17.00;93.80;;;;;;7396352;19;20085;-72
2022/05/25 12:21:05;;;;;;;6.45;2.75;;;16.70;94.10;;;;;;7400332;19;20049;-73
2022/05/25 12:23:37;;;;;;;3.67;3.28;;;16.40;96.10;;;;;;7396586;19;20018;-72
2022/05/25 12:26:12;;;;;;;6.18;2.80;;;16.50;95.30;;;;;;7398792;19;20029;-72
2022/05/25 12:28:46;;;;;;;5.43;3.10;;;16.40;94.20;;;;;;7394482;19;20007;-72
2022/05/25 12:31:22;;;;;;;6.30;3.28;;;16.10;96.30;;;;;;7397286;19;20625;-72
2022/05/25 12:33:52;;;;;;;5.97;4.35;;;16.20;97.40;;;;;;7396114;19;20014;-72
2022/05/25 12:36:22;;;;;;;9.23;4.78;;;15.90;98.70;;;;;;7396322;19;20078;-72
2022/05/25 12:38:51;;;;;;;6.65;4.10;;;15.70;99.70;;;;;;7393645;19;20021;-73
2022/05/25 12:41:35;;;;;;;5.28;3.55;;;15.40;99.90;;;;;;7396894;19;20014;-72
2022/05/25 12:49:59;;;;;;;6.75;3.50;;;14.80;99.90;;;;;;7395001;19;20022;-71
2022/05/25 12:52:46;;;;;;;6.47;3.90;;;14.80;99.90;;;;;;7396483;19;20022;-72
2022/05/25 12:55:33;;;;;;;4.25;3.63;;;15.20;99.90;;;;;;7395232;19;20014;-71
2022/05/25 12:58:01;;;;;;;;;;;15.20;99.90;;;;;;7394623;19;20078;-71
2022/05/25 13:00:45;;;;;;;7.70;3.83;;;15.70;99.90;;;;;;7393818;19;20395;-72
2022/05/25 13:03:37;;;;;;;4.90;3.63;;;16.10;99.90;;;;;;7394060;19;20025;-71
2022/05/25 13:06:07;;;;;;;5.78;3.83;;;16.10;99.90;;;;;;7393835;19;20672;-72
2022/05/25 13:09:11;;;;;;;5.15;4.00;;;16.20;99.00;;;;;;7396477;19;20388;-72
2022/05/25 13:11:46;;;;;;;6.55;3.78;;;16.10;99.90;;;;;;7396721;19;20042;-72
2022/05/25 13:14:45;;;;;;;6.45;4.47;;;16.10;99.70;;;;;;7392381;19;20018;-72
2022/05/25 13:17:48;;;;;;;7.65;4.55;;;16.70;99.90;;;;;;7397028;19;20015;-71
2022/05/25 13:20:46;;;;;;;9.50;4.70;;;16.40;98.60;;;;;;7396499;19;20471;-71
2022/05/25 13:23:51;;;;;;;7.55;4.70;;;16.50;99.30;;;;;;7395092;19;20014;-72
2022/05/25 13:26:22;;;;;;;7.88;5.00;;;16.50;99.40;;;;;;7396456;19;20160;-72
2022/05/25 13:28:56;;;;;;;7.35;4.47;;;16.70;99.90;;;;;;7398045;19;20027;-71
2022/05/25 13:31:36;;;;;;;5.40;3.60;;;17.00;99.20;;;;;;7397899;19;20015;-72
2022/05/25 13:34:17;;;;;;;6.75;3.47;;;16.90;99.40;;;;;;7392771;19;20045;-72
2022/05/25 13:36:51;;;;;;;5.80;3.50;;;17.80;99.20;;;;;;7395638;19;20459;-72
2022/05/25 13:39:23;;;;;;;7.00;3.85;;;17.00;99.90;;;;;;7393734;19;20010;-71
2022/05/25 13:41:57;;;;;;;8.95;3.80;;;16.90;99.20;;;;;;7394473;19;20351;-72
2022/05/25 13:44:31;;;;;;;4.80;3.40;;;16.60;99.80;;;;;;7389546;19;20078;-71
2022/05/25 13:47:01;;;;;;;6.30;3.42;;;16.70;99.90;;;;;;7397032;19;20447;-72
2022/05/25 13:49:40;;;;;;;6.63;3.40;;;16.70;99.90;;;;;;7393179;19;20042;-72
2022/05/25 13:52:18;;;;;;;7.82;3.28;;;16.60;99.90;;;;;;7392410;19;20471;-72
2022/05/25 13:54:51;;;;;;;7.45;3.00;;;16.60;99.90;;;;;;7391969;19;20042;-71